JST1738 YSSY-YBTL
Flight info
| Callsign | JST1738 |
|---|---|
| Flight time | 2h 24m |
| Altitude | 38000 |
| Route | RIC H530 KABIX Q147 VOMPA DCT TL |
| Aircraft | A20N/M-SDE2E3FGHIRWXY/LB1 |
Departure
| Time | 2026-04-16 02:10 |
|---|---|
| Airport | Sydney Kingsford Smith International Airport (YSSY) |
Arrival
| Time | 2026-04-16 04:34 |
|---|---|
| Airport | Townsville Airport / RAAF Base Townsville (YBTL) |
| Time | Latitude | Longitude | Altitude | Speed | Heading |
|---|---|---|---|---|---|
| 2026-04-16 01:44 | -33.93558 | 151.17673 | 30 ft | 0 kts | 98° |
| 2026-04-16 01:57 | -33.93557 | 151.17671 | 30 ft | 2 kts | 98° |
| 2026-04-16 01:57 | -33.93555 | 151.17654 | 30 ft | 2 kts | 98° |
| 2026-04-16 01:57 | -33.93553 | 151.17637 | 30 ft | 2 kts | 98° |
| 2026-04-16 01:58 | -33.93551 | 151.17619 | 29 ft | 2 kts | 106° |
| 2026-04-16 01:58 | -33.93547 | 151.17605 | 28 ft | 1 kts | 120° |
| 2026-04-16 01:58 | -33.93542 | 151.17597 | 27 ft | 1 kts | 159° |
| 2026-04-16 02:00 | -33.93544 | 151.17598 | 27 ft | 1 kts | 160° |
| 2026-04-16 02:00 | -33.93576 | 151.17610 | 27 ft | 9 kts | 163° |
| 2026-04-16 02:00 | -33.93658 | 151.17647 | 29 ft | 14 kts | 150° |
| 2026-04-16 02:00 | -33.93774 | 151.17693 | 20 ft | 15 kts | 166° |
| 2026-04-16 02:01 | -33.93869 | 151.17758 | 21 ft | 16 kts | 139° |
| 2026-04-16 02:01 | -33.93975 | 151.17798 | 24 ft | 16 kts | 166° |
| 2026-04-16 02:01 | -33.94093 | 151.17831 | 27 ft | 19 kts | 168° |
| 2026-04-16 02:01 | -33.94223 | 151.17866 | 26 ft | 20 kts | 167° |
| 2026-04-16 02:02 | -33.94360 | 151.17903 | 25 ft | 19 kts | 168° |
| 2026-04-16 02:02 | -33.94468 | 151.17900 | 26 ft | 17 kts | 202° |
| 2026-04-16 02:02 | -33.94587 | 151.17900 | 26 ft | 16 kts | 167° |
| 2026-04-16 02:02 | -33.94710 | 151.17933 | 22 ft | 20 kts | 168° |
| 2026-04-16 02:03 | -33.94857 | 151.17970 | 20 ft | 23 kts | 168° |
| 2026-04-16 02:03 | -33.95012 | 151.18011 | 27 ft | 22 kts | 168° |
| 2026-04-16 02:03 | -33.95147 | 151.18044 | 27 ft | 15 kts | 173° |
| 2026-04-16 02:04 | -33.95218 | 151.17889 | 23 ft | 0 kts | 257° |
| 2026-04-16 02:05 | -33.95219 | 151.17879 | 23 ft | 4 kts | 257° |
| 2026-04-16 02:05 | -33.95233 | 151.17811 | 23 ft | 13 kts | 257° |
| 2026-04-16 02:05 | -33.95256 | 151.17673 | 21 ft | 17 kts | 255° |
| 2026-04-16 02:05 | -33.95352 | 151.17586 | 19 ft | 20 kts | 176° |
| 2026-04-16 02:06 | -33.95490 | 151.17619 | 20 ft | 21 kts | 169° |
| 2026-04-16 02:06 | -33.95636 | 151.17657 | 25 ft | 22 kts | 168° |
| 2026-04-16 02:06 | -33.95787 | 151.17695 | 24 ft | 23 kts | 167° |
| 2026-04-16 02:06 | -33.95956 | 151.17741 | 22 ft | 25 kts | 166° |
| 2026-04-16 02:07 | -33.96131 | 151.17785 | 25 ft | 26 kts | 167° |
| 2026-04-16 02:07 | -33.96294 | 151.17827 | 24 ft | 20 kts | 168° |
| 2026-04-16 02:07 | -33.96309 | 151.17831 | 22 ft | 1 kts | 168° |
| 2026-04-16 02:07 | -33.96327 | 151.17836 | 22 ft | 5 kts | 168° |
| 2026-04-16 02:08 | -33.96399 | 151.17855 | 27 ft | 14 kts | 162° |
| 2026-04-16 02:08 | -33.96440 | 151.17930 | 25 ft | 0 kts | 81° |
| 2026-04-16 02:09 | -33.96434 | 151.17968 | 23 ft | 11 kts | 77° |
| 2026-04-16 02:09 | -33.96382 | 151.18051 | 25 ft | 11 kts | 353° |
| 2026-04-16 02:09 | -33.96205 | 151.18005 | 20 ft | 62 kts | 348° |
| 2026-04-16 02:09 | -33.95521 | 151.17826 | 22 ft | 135 kts | 348° |
| 2026-04-16 02:10 | -33.94483 | 151.17549 | 485 ft | 155 kts | 348° |
| 2026-04-16 02:10 | -33.93423 | 151.17271 | 1266 ft | 161 kts | 348° |
| 2026-04-16 02:10 | -33.92289 | 151.16955 | 1813 ft | 178 kts | 339° |
| 2026-04-16 02:10 | -33.91244 | 151.16046 | 2354 ft | 195 kts | 316° |
| 2026-04-16 02:11 | -33.90236 | 151.14834 | 2842 ft | 215 kts | 315° |
| 2026-04-16 02:11 | -33.89135 | 151.13484 | 3374 ft | 237 kts | 313° |
| 2026-04-16 02:11 | -33.87940 | 151.12014 | 3877 ft | 252 kts | 313° |
| 2026-04-16 02:11 | -33.86701 | 151.10492 | 4364 ft | 254 kts | 313° |
| 2026-04-16 02:12 | -33.85444 | 151.08955 | 4825 ft | 260 kts | 313° |
| 2026-04-16 02:12 | -33.84176 | 151.07407 | 4934 ft | 258 kts | 313° |
| 2026-04-16 02:12 | -33.82916 | 151.05871 | 4971 ft | 259 kts | 313° |
| 2026-04-16 02:12 | -33.81668 | 151.04351 | 4971 ft | 258 kts | 313° |
| 2026-04-16 02:13 | -33.80399 | 151.02807 | 4975 ft | 261 kts | 312° |
| 2026-04-16 02:13 | -33.79125 | 151.01253 | 5183 ft | 259 kts | 312° |
| 2026-04-16 02:13 | -33.77859 | 150.99707 | 5662 ft | 261 kts | 312° |
| 2026-04-16 02:13 | -33.76610 | 150.98184 | 6179 ft | 264 kts | 312° |
| 2026-04-16 02:14 | -33.75319 | 150.96612 | 6689 ft | 266 kts | 312° |
| 2026-04-16 02:14 | -33.74019 | 150.95032 | 7198 ft | 267 kts | 312° |
| 2026-04-16 02:14 | -33.72711 | 150.93444 | 7700 ft | 267 kts | 312° |
| 2026-04-16 02:14 | -33.71959 | 150.92530 | 7992 ft | 269 kts | 311° |
| 2026-04-16 02:15 | -33.70685 | 150.90984 | 8502 ft | 270 kts | 311° |
| 2026-04-16 02:15 | -33.69360 | 150.89374 | 9030 ft | 272 kts | 311° |
| 2026-04-16 02:15 | -33.68166 | 150.87925 | 9513 ft | 274 kts | 311° |
| 2026-04-16 02:15 | -33.67637 | 150.87282 | 9730 ft | 274 kts | 311° |
| 2026-04-16 02:16 | -33.66263 | 150.85611 | 10256 ft | 289 kts | 311° |
| 2026-04-16 02:16 | -33.64815 | 150.83849 | 10759 ft | 304 kts | 311° |
| 2026-04-16 02:16 | -33.63294 | 150.82003 | 11272 ft | 318 kts | 311° |
| 2026-04-16 02:16 | -33.61703 | 150.80075 | 11781 ft | 331 kts | 311° |
| 2026-04-16 02:17 | -33.60057 | 150.78082 | 12318 ft | 342 kts | 311° |
| 2026-04-16 02:17 | -33.58342 | 150.76030 | 12839 ft | 353 kts | 312° |
| 2026-04-16 02:17 | -33.56553 | 150.73954 | 13385 ft | 363 kts | 313° |
| 2026-04-16 02:17 | -33.54710 | 150.71835 | 13933 ft | 372 kts | 313° |
| 2026-04-16 02:18 | -33.52849 | 150.69694 | 14406 ft | 379 kts | 313° |
| 2026-04-16 02:18 | -33.50970 | 150.67529 | 14892 ft | 387 kts | 313° |
| 2026-04-16 02:18 | -33.50498 | 150.66983 | 15019 ft | 388 kts | 313° |
| 2026-04-16 02:18 | -33.48536 | 150.64718 | 15529 ft | 395 kts | 313° |
| 2026-04-16 02:19 | -33.46542 | 150.62416 | 16052 ft | 401 kts | 313° |
| 2026-04-16 02:19 | -33.44523 | 150.60081 | 16576 ft | 406 kts | 313° |
| 2026-04-16 02:19 | -33.42471 | 150.57703 | 17122 ft | 411 kts | 313° |
| 2026-04-16 02:19 | -33.40410 | 150.55308 | 17691 ft | 414 kts | 313° |
| 2026-04-16 02:20 | -33.38349 | 150.52931 | 18217 ft | 417 kts | 313° |
| 2026-04-16 02:20 | -33.36254 | 150.50515 | 18724 ft | 419 kts | 313° |
| 2026-04-16 02:20 | -33.34149 | 150.48102 | 19300 ft | 419 kts | 313° |
| 2026-04-16 02:20 | -33.32042 | 150.45686 | 19888 ft | 419 kts | 313° |
| 2026-04-16 02:21 | -33.29939 | 150.43273 | 20488 ft | 419 kts | 312° |
| 2026-04-16 02:21 | -33.27835 | 150.40857 | 21105 ft | 419 kts | 312° |
| 2026-04-16 02:21 | -33.25733 | 150.38444 | 21743 ft | 418 kts | 312° |
| 2026-04-16 02:21 | -33.23636 | 150.36038 | 22386 ft | 418 kts | 312° |
| 2026-04-16 02:22 | -33.21540 | 150.33632 | 23054 ft | 418 kts | 311° |
| 2026-04-16 02:22 | -33.19443 | 150.31224 | 23707 ft | 416 kts | 312° |
| 2026-04-16 02:22 | -33.17384 | 150.28864 | 24253 ft | 415 kts | 311° |
| 2026-04-16 02:22 | -33.15302 | 150.26483 | 24836 ft | 412 kts | 311° |
| 2026-04-16 02:23 | -33.13232 | 150.24121 | 25408 ft | 408 kts | 312° |
| 2026-04-16 02:23 | -33.11176 | 150.21804 | 25950 ft | 406 kts | 311° |
| 2026-04-16 02:23 | -33.09138 | 150.19481 | 26447 ft | 405 kts | 311° |
| 2026-04-16 02:23 | -33.07111 | 150.17151 | 26928 ft | 405 kts | 310° |
| 2026-04-16 02:24 | -33.05086 | 150.14827 | 27434 ft | 404 kts | 310° |
| 2026-04-16 02:24 | -33.03054 | 150.12502 | 27949 ft | 402 kts | 310° |
| 2026-04-16 02:24 | -33.01037 | 150.10200 | 28469 ft | 401 kts | 310° |
| 2026-04-16 02:24 | -32.99052 | 150.07939 | 28994 ft | 398 kts | 310° |
| 2026-04-16 02:25 | -32.97054 | 150.05669 | 29532 ft | 396 kts | 310° |
| 2026-04-16 02:25 | -32.95070 | 150.03411 | 30103 ft | 392 kts | 310° |
| 2026-04-16 02:25 | -32.93103 | 150.01173 | 30565 ft | 389 kts | 309° |
| 2026-04-16 02:25 | -32.91146 | 149.98956 | 31031 ft | 385 kts | 309° |
| 2026-04-16 02:26 | -32.89217 | 149.96776 | 31515 ft | 380 kts | 309° |
| 2026-04-16 02:26 | -32.87309 | 149.94613 | 31973 ft | 377 kts | 308° |
| 2026-04-16 02:26 | -32.85426 | 149.92481 | 32469 ft | 371 kts | 308° |
| 2026-04-16 02:26 | -32.83561 | 149.90371 | 32975 ft | 367 kts | 307° |
| 2026-04-16 02:27 | -32.81721 | 149.88291 | 33462 ft | 362 kts | 307° |
| 2026-04-16 02:27 | -32.79931 | 149.86266 | 33976 ft | 356 kts | 306° |
| 2026-04-16 02:27 | -32.78153 | 149.84256 | 34439 ft | 350 kts | 306° |
| 2026-04-16 02:27 | -32.76399 | 149.82280 | 34888 ft | 344 kts | 306° |
| 2026-04-16 02:28 | -32.74678 | 149.80348 | 35344 ft | 337 kts | 306° |
| 2026-04-16 02:28 | -32.72995 | 149.78457 | 35816 ft | 329 kts | 305° |
| 2026-04-16 02:28 | -32.71356 | 149.76607 | 36252 ft | 322 kts | 305° |
| 2026-04-16 02:28 | -32.69742 | 149.74778 | 36579 ft | 318 kts | 304° |
| 2026-04-16 02:29 | -32.68143 | 149.72963 | 36726 ft | 319 kts | 304° |
| 2026-04-16 02:29 | -32.66538 | 149.71141 | 36852 ft | 320 kts | 304° |
| 2026-04-16 02:29 | -32.64919 | 149.69306 | 36981 ft | 322 kts | 304° |
| 2026-04-16 02:29 | -32.63295 | 149.67473 | 37085 ft | 323 kts | 304° |
| 2026-04-16 02:30 | -32.61679 | 149.65655 | 37203 ft | 325 kts | 304° |
| 2026-04-16 02:30 | -32.60034 | 149.63809 | 37310 ft | 326 kts | 305° |
| 2026-04-16 02:30 | -32.58383 | 149.61959 | 37435 ft | 326 kts | 305° |
| 2026-04-16 02:30 | -32.56743 | 149.60104 | 37554 ft | 325 kts | 303° |
| 2026-04-16 02:31 | -32.55228 | 149.58158 | 37675 ft | 319 kts | 300° |
| 2026-04-16 02:31 | -32.53829 | 149.56119 | 37806 ft | 318 kts | 299° |
| 2026-04-16 02:31 | -32.51031 | 149.52044 | 38009 ft | 319 kts | 299° |
| 2026-04-16 02:32 | -32.48252 | 149.48008 | 38121 ft | 322 kts | 299° |
| 2026-04-16 02:32 | -32.45387 | 149.43849 | 38110 ft | 329 kts | 299° |
| 2026-04-16 02:33 | -32.42464 | 149.39625 | 38110 ft | 335 kts | 299° |
| 2026-04-16 02:33 | -32.39490 | 149.35332 | 38110 ft | 342 kts | 300° |
| 2026-04-16 02:34 | -32.36435 | 149.30933 | 38111 ft | 349 kts | 300° |
| 2026-04-16 02:34 | -32.33319 | 149.26450 | 38111 ft | 356 kts | 300° |
| 2026-04-16 02:35 | -32.30145 | 149.21881 | 38111 ft | 363 kts | 300° |
| 2026-04-16 02:35 | -32.26910 | 149.17233 | 38111 ft | 369 kts | 300° |
| 2026-04-16 02:36 | -32.24180 | 149.13318 | 38109 ft | 371 kts | 300° |
| 2026-04-16 02:36 | -32.20357 | 149.07844 | 38111 ft | 371 kts | 300° |
| 2026-04-16 02:37 | -32.17072 | 149.03143 | 38096 ft | 370 kts | 300° |
| 2026-04-16 02:37 | -32.14349 | 148.99248 | 38091 ft | 370 kts | 300° |
| 2026-04-16 02:38 | -32.11066 | 148.94557 | 38116 ft | 371 kts | 301° |
| 2026-04-16 02:38 | -32.07671 | 148.89956 | 38120 ft | 375 kts | 304° |
| 2026-04-16 02:39 | -32.03714 | 148.85821 | 38120 ft | 385 kts | 311° |
| 2026-04-16 02:39 | -31.99224 | 148.82223 | 38119 ft | 392 kts | 315° |
| 2026-04-16 02:40 | -31.94647 | 148.78710 | 38116 ft | 392 kts | 315° |
| 2026-04-16 02:40 | -31.90087 | 148.75200 | 38099 ft | 391 kts | 315° |
| 2026-04-16 02:41 | -31.85565 | 148.71723 | 38111 ft | 391 kts | 315° |
| 2026-04-16 02:41 | -31.81006 | 148.68222 | 38110 ft | 391 kts | 315° |
| 2026-04-16 02:42 | -31.76450 | 148.64727 | 38108 ft | 391 kts | 315° |
| 2026-04-16 02:42 | -31.71882 | 148.61228 | 38108 ft | 391 kts | 315° |
| 2026-04-16 02:43 | -31.67349 | 148.57761 | 38111 ft | 391 kts | 315° |
| 2026-04-16 02:43 | -31.62784 | 148.54272 | 38111 ft | 391 kts | 315° |
| 2026-04-16 02:44 | -31.58216 | 148.50786 | 38108 ft | 391 kts | 315° |
| 2026-04-16 02:44 | -31.53660 | 148.47296 | 38071 ft | 391 kts | 316° |
| 2026-04-16 02:45 | -31.51240 | 148.45747 | 38103 ft | 405 kts | 324° |
| 2026-04-16 02:45 | -31.48616 | 148.44469 | 38103 ft | 409 kts | 324° |
| 2026-04-16 02:45 | -31.43327 | 148.42067 | 38107 ft | 411 kts | 326° |
| 2026-04-16 02:46 | -31.37949 | 148.39761 | 38117 ft | 412 kts | 326° |
| 2026-04-16 02:46 | -31.32557 | 148.37480 | 38113 ft | 412 kts | 326° |
| 2026-04-16 02:47 | -31.27163 | 148.35199 | 38103 ft | 412 kts | 326° |
| 2026-04-16 02:47 | -31.21752 | 148.32908 | 38106 ft | 414 kts | 327° |
| 2026-04-16 02:48 | -31.16322 | 148.30617 | 38107 ft | 414 kts | 327° |
| 2026-04-16 02:48 | -31.10906 | 148.28334 | 38104 ft | 414 kts | 327° |
| 2026-04-16 02:49 | -31.05520 | 148.26065 | 38111 ft | 414 kts | 327° |
| 2026-04-16 02:49 | -31.00101 | 148.23785 | 38112 ft | 414 kts | 327° |
| 2026-04-16 02:50 | -30.94662 | 148.21496 | 38105 ft | 416 kts | 327° |
| 2026-04-16 02:50 | -30.89483 | 148.19323 | 38104 ft | 415 kts | 327° |
| 2026-04-16 02:51 | -30.84049 | 148.17046 | 38105 ft | 416 kts | 327° |
| 2026-04-16 02:51 | -30.78639 | 148.14781 | 38105 ft | 415 kts | 327° |
| 2026-04-16 02:52 | -30.74994 | 148.13257 | 38105 ft | 416 kts | 327° |
| 2026-04-16 02:52 | -30.71407 | 148.11756 | 38096 ft | 416 kts | 327° |
| 2026-04-16 02:53 | -30.66072 | 148.09527 | 38102 ft | 417 kts | 327° |
| 2026-04-16 02:53 | -30.60650 | 148.07268 | 38105 ft | 417 kts | 327° |
| 2026-04-16 02:54 | -30.55189 | 148.04993 | 38102 ft | 417 kts | 328° |
| 2026-04-16 02:54 | -30.54264 | 148.04608 | 38102 ft | 417 kts | 328° |
| 2026-04-16 02:56 | -30.50873 | 148.03197 | 38102 ft | 417 kts | 328° |
| 2026-04-16 02:56 | -30.45443 | 148.00939 | 38064 ft | 417 kts | 328° |
| 2026-04-16 02:57 | -30.40400 | 147.98842 | 38101 ft | 419 kts | 328° |
| 2026-04-16 02:57 | -30.34910 | 147.96567 | 38101 ft | 419 kts | 328° |
| 2026-04-16 02:58 | -30.29427 | 147.94297 | 38103 ft | 419 kts | 328° |
| 2026-04-16 02:58 | -30.23936 | 147.92025 | 38100 ft | 418 kts | 328° |
| 2026-04-16 02:59 | -30.18499 | 147.89778 | 38061 ft | 418 kts | 328° |
| 2026-04-16 02:59 | -30.13015 | 147.87511 | 38101 ft | 419 kts | 328° |
| 2026-04-16 03:00 | -30.07530 | 147.85253 | 38104 ft | 418 kts | 328° |
| 2026-04-16 03:00 | -30.02040 | 147.82992 | 38105 ft | 419 kts | 328° |
| 2026-04-16 03:01 | -29.96548 | 147.80733 | 38101 ft | 419 kts | 328° |
| 2026-04-16 03:01 | -29.91052 | 147.78475 | 38074 ft | 419 kts | 329° |
| 2026-04-16 03:02 | -29.85590 | 147.76232 | 38099 ft | 419 kts | 329° |
| 2026-04-16 03:02 | -29.80093 | 147.73980 | 38102 ft | 419 kts | 329° |
| 2026-04-16 03:03 | -29.74594 | 147.71729 | 38106 ft | 419 kts | 329° |
| 2026-04-16 03:03 | -29.69100 | 147.69482 | 38106 ft | 419 kts | 329° |
| 2026-04-16 03:04 | -29.63631 | 147.67248 | 38078 ft | 419 kts | 329° |
| 2026-04-16 03:04 | -29.58128 | 147.65001 | 38098 ft | 419 kts | 329° |
| 2026-04-16 03:05 | -29.52653 | 147.62772 | 38110 ft | 419 kts | 329° |
| 2026-04-16 03:05 | -29.47149 | 147.60532 | 38101 ft | 419 kts | 329° |
| 2026-04-16 03:06 | -29.41656 | 147.58299 | 38107 ft | 419 kts | 329° |
| 2026-04-16 03:07 | -29.33411 | 147.54950 | 38111 ft | 420 kts | 329° |
| 2026-04-16 03:07 | -29.27924 | 147.52725 | 38105 ft | 420 kts | 329° |
| 2026-04-16 03:08 | -29.22394 | 147.50528 | 38102 ft | 423 kts | 332° |
| 2026-04-16 03:08 | -29.16556 | 147.49040 | 38102 ft | 437 kts | 340° |
| 2026-04-16 03:09 | -29.10405 | 147.48551 | 38104 ft | 447 kts | 346° |
| 2026-04-16 03:09 | -29.04188 | 147.48303 | 38105 ft | 446 kts | 346° |
| 2026-04-16 03:10 | -28.98018 | 147.48036 | 38103 ft | 446 kts | 346° |
| 2026-04-16 03:10 | -28.91811 | 147.47765 | 38097 ft | 446 kts | 346° |
| 2026-04-16 03:11 | -28.85606 | 147.47495 | 38098 ft | 446 kts | 346° |
| 2026-04-16 03:11 | -28.79388 | 147.47223 | 38097 ft | 447 kts | 346° |
| 2026-04-16 03:12 | -28.73201 | 147.46956 | 38097 ft | 447 kts | 346° |
| 2026-04-16 03:12 | -28.66980 | 147.46687 | 38097 ft | 447 kts | 346° |
| 2026-04-16 03:13 | -28.60753 | 147.46418 | 38097 ft | 447 kts | 346° |
| 2026-04-16 03:13 | -28.54521 | 147.46146 | 38097 ft | 449 kts | 346° |
| 2026-04-16 03:14 | -28.48280 | 147.45878 | 38093 ft | 448 kts | 346° |
| 2026-04-16 03:14 | -28.42036 | 147.45609 | 38092 ft | 448 kts | 346° |
| 2026-04-16 03:15 | -28.35836 | 147.45342 | 38092 ft | 448 kts | 346° |
| 2026-04-16 03:15 | -28.29583 | 147.45071 | 38092 ft | 450 kts | 347° |
| 2026-04-16 03:16 | -28.23314 | 147.44803 | 38090 ft | 450 kts | 347° |
| 2026-04-16 03:16 | -28.17047 | 147.44535 | 38089 ft | 450 kts | 347° |
| 2026-04-16 03:17 | -28.10821 | 147.44268 | 38089 ft | 450 kts | 347° |
| 2026-04-16 03:17 | -28.04553 | 147.43998 | 38089 ft | 452 kts | 347° |
| 2026-04-16 03:18 | -27.98266 | 147.43730 | 38086 ft | 451 kts | 347° |
| 2026-04-16 03:18 | -27.91992 | 147.43463 | 38083 ft | 451 kts | 347° |
| 2026-04-16 03:19 | -27.85721 | 147.43195 | 38086 ft | 451 kts | 347° |
| 2026-04-16 03:19 | -27.79440 | 147.42926 | 38086 ft | 452 kts | 347° |
| 2026-04-16 03:20 | -27.73145 | 147.42659 | 38078 ft | 452 kts | 347° |
| 2026-04-16 03:20 | -27.66900 | 147.42394 | 38081 ft | 452 kts | 347° |
| 2026-04-16 03:21 | -27.60611 | 147.42127 | 38078 ft | 452 kts | 347° |
| 2026-04-16 03:21 | -27.54325 | 147.41858 | 38077 ft | 453 kts | 347° |
| 2026-04-16 03:22 | -27.48015 | 147.41592 | 38078 ft | 453 kts | 347° |
| 2026-04-16 03:22 | -27.41708 | 147.41325 | 38078 ft | 453 kts | 347° |
| 2026-04-16 03:23 | -27.35402 | 147.41059 | 38081 ft | 453 kts | 347° |
| 2026-04-16 03:23 | -27.29099 | 147.40792 | 38080 ft | 454 kts | 347° |
| 2026-04-16 03:24 | -27.22780 | 147.40525 | 38074 ft | 454 kts | 347° |
| 2026-04-16 03:24 | -27.16501 | 147.40262 | 38073 ft | 454 kts | 347° |
| 2026-04-16 03:25 | -27.10189 | 147.39996 | 38074 ft | 454 kts | 347° |
| 2026-04-16 03:25 | -27.03874 | 147.39729 | 38075 ft | 454 kts | 348° |
| 2026-04-16 03:26 | -26.97585 | 147.39465 | 38075 ft | 454 kts | 348° |
| 2026-04-16 03:26 | -26.91272 | 147.39202 | 38075 ft | 454 kts | 348° |
| 2026-04-16 03:27 | -26.85980 | 147.38980 | 38078 ft | 454 kts | 348° |
| 2026-04-16 03:27 | -26.79700 | 147.38717 | 38068 ft | 454 kts | 348° |
| 2026-04-16 03:28 | -26.73371 | 147.38452 | 38081 ft | 455 kts | 348° |
| 2026-04-16 03:28 | -26.67045 | 147.38188 | 38080 ft | 454 kts | 348° |
| 2026-04-16 03:29 | -26.60731 | 147.37925 | 38084 ft | 453 kts | 348° |
| 2026-04-16 03:29 | -26.54454 | 147.37662 | 38081 ft | 454 kts | 348° |
| 2026-04-16 03:30 | -26.48146 | 147.37400 | 38080 ft | 453 kts | 348° |
| 2026-04-16 03:30 | -26.41834 | 147.37138 | 38083 ft | 454 kts | 348° |
| 2026-04-16 03:31 | -26.35522 | 147.36876 | 38089 ft | 454 kts | 348° |
| 2026-04-16 03:31 | -26.29208 | 147.36614 | 38085 ft | 454 kts | 348° |
| 2026-04-16 03:32 | -26.22889 | 147.36350 | 38086 ft | 454 kts | 348° |
| 2026-04-16 03:34 | -25.97646 | 147.35307 | 38095 ft | 455 kts | 348° |
| 2026-04-16 03:34 | -25.91324 | 147.35047 | 38092 ft | 455 kts | 348° |
| 2026-04-16 03:35 | -25.84997 | 147.34787 | 38088 ft | 455 kts | 348° |
| 2026-04-16 03:35 | -25.78705 | 147.34529 | 38091 ft | 454 kts | 348° |
| 2026-04-16 03:36 | -25.72385 | 147.34268 | 38088 ft | 454 kts | 349° |
| 2026-04-16 03:36 | -25.66059 | 147.34009 | 38085 ft | 454 kts | 349° |
| 2026-04-16 03:37 | -25.59741 | 147.33750 | 38084 ft | 454 kts | 349° |
| 2026-04-16 03:37 | -25.53408 | 147.33490 | 38086 ft | 454 kts | 349° |
| 2026-04-16 03:38 | -25.47097 | 147.33232 | 38086 ft | 452 kts | 349° |
| 2026-04-16 03:38 | -25.40798 | 147.32975 | 38087 ft | 452 kts | 349° |
| 2026-04-16 03:39 | -25.34545 | 147.32719 | 38087 ft | 453 kts | 349° |
| 2026-04-16 03:39 | -25.28231 | 147.32462 | 38087 ft | 453 kts | 349° |
| 2026-04-16 03:40 | -25.21935 | 147.32205 | 38091 ft | 451 kts | 349° |
| 2026-04-16 03:40 | -25.15662 | 147.31950 | 38094 ft | 451 kts | 349° |
| 2026-04-16 03:41 | -25.09382 | 147.31695 | 38100 ft | 451 kts | 349° |
| 2026-04-16 03:41 | -25.03104 | 147.31440 | 38100 ft | 452 kts | 349° |
| 2026-04-16 03:42 | -24.96862 | 147.31186 | 38081 ft | 451 kts | 349° |
| 2026-04-16 03:42 | -24.90568 | 147.30930 | 38105 ft | 452 kts | 349° |
| 2026-04-16 03:43 | -24.84276 | 147.30676 | 38103 ft | 452 kts | 349° |
| 2026-04-16 03:43 | -24.77984 | 147.30422 | 38105 ft | 452 kts | 349° |
| 2026-04-16 03:44 | -24.71692 | 147.30167 | 38105 ft | 453 kts | 349° |
| 2026-04-16 03:44 | -24.65383 | 147.29909 | 38106 ft | 454 kts | 350° |
| 2026-04-16 03:45 | -24.59062 | 147.29657 | 38104 ft | 454 kts | 350° |
| 2026-04-16 03:45 | -24.52781 | 147.29405 | 38102 ft | 454 kts | 350° |
| 2026-04-16 03:46 | -24.46465 | 147.29151 | 38105 ft | 454 kts | 350° |
| 2026-04-16 03:46 | -24.40148 | 147.28895 | 38105 ft | 455 kts | 350° |
| 2026-04-16 03:47 | -24.33796 | 147.28641 | 38101 ft | 455 kts | 350° |
| 2026-04-16 03:47 | -24.27463 | 147.28388 | 38102 ft | 455 kts | 350° |
| 2026-04-16 03:48 | -24.21174 | 147.28136 | 38106 ft | 455 kts | 350° |
| 2026-04-16 03:48 | -24.14825 | 147.27881 | 38092 ft | 456 kts | 351° |
| 2026-04-16 03:49 | -24.08459 | 147.27624 | 38104 ft | 458 kts | 351° |
| 2026-04-16 03:49 | -24.02432 | 147.27385 | 38106 ft | 458 kts | 351° |
| 2026-04-16 03:50 | -23.96063 | 147.27131 | 38106 ft | 458 kts | 351° |
| 2026-04-16 03:50 | -23.91041 | 147.26932 | 38104 ft | 458 kts | 351° |
| 2026-04-16 03:51 | -23.84652 | 147.26677 | 38109 ft | 458 kts | 351° |
| 2026-04-16 03:51 | -23.78271 | 147.26422 | 38108 ft | 458 kts | 351° |
| 2026-04-16 03:52 | -23.71925 | 147.26170 | 38108 ft | 458 kts | 351° |
| 2026-04-16 03:52 | -23.65564 | 147.25917 | 38102 ft | 458 kts | 351° |
| 2026-04-16 03:53 | -23.59178 | 147.25662 | 38104 ft | 460 kts | 351° |
| 2026-04-16 03:53 | -23.52778 | 147.25410 | 38106 ft | 462 kts | 351° |
| 2026-04-16 03:54 | -23.46333 | 147.25153 | 38098 ft | 461 kts | 351° |
| 2026-04-16 03:54 | -23.39925 | 147.24900 | 38102 ft | 461 kts | 351° |
| 2026-04-16 03:55 | -23.33549 | 147.24648 | 38096 ft | 461 kts | 351° |
| 2026-04-16 03:55 | -23.27110 | 147.24393 | 38096 ft | 463 kts | 351° |
| 2026-04-16 03:56 | -23.20677 | 147.24140 | 38096 ft | 462 kts | 351° |
| 2026-04-16 03:56 | -23.14265 | 147.23887 | 38098 ft | 462 kts | 351° |
| 2026-04-16 03:57 | -23.07827 | 147.23634 | 38095 ft | 462 kts | 351° |
| 2026-04-16 03:57 | -23.01383 | 147.23379 | 38094 ft | 464 kts | 352° |
| 2026-04-16 03:58 | -22.94925 | 147.23126 | 38093 ft | 463 kts | 352° |
| 2026-04-16 03:58 | -22.88473 | 147.22873 | 38093 ft | 464 kts | 352° |
| 2026-04-16 03:59 | -22.82065 | 147.22622 | 38093 ft | 464 kts | 352° |
| 2026-04-16 03:59 | -22.75614 | 147.22368 | 38097 ft | 463 kts | 352° |
| 2026-04-16 04:00 | -22.69171 | 147.22116 | 38090 ft | 463 kts | 352° |
| 2026-04-16 04:00 | -22.62734 | 147.21865 | 38089 ft | 463 kts | 352° |
| 2026-04-16 04:01 | -22.56293 | 147.21613 | 38086 ft | 463 kts | 352° |
| 2026-04-16 04:01 | -22.49859 | 147.21359 | 38084 ft | 462 kts | 353° |
| 2026-04-16 04:02 | -22.43432 | 147.21107 | 38085 ft | 462 kts | 353° |
| 2026-04-16 04:02 | -22.37045 | 147.20859 | 38087 ft | 462 kts | 353° |
| 2026-04-16 04:03 | -22.30607 | 147.20608 | 38079 ft | 462 kts | 353° |
| 2026-04-16 04:03 | -22.24179 | 147.20358 | 38068 ft | 462 kts | 353° |
| 2026-04-16 04:04 | -22.17735 | 147.20105 | 38077 ft | 463 kts | 353° |
| 2026-04-16 04:04 | -22.11324 | 147.19857 | 38078 ft | 463 kts | 353° |
| 2026-04-16 04:05 | -22.04887 | 147.19608 | 38072 ft | 463 kts | 353° |
| 2026-04-16 04:05 | -21.98442 | 147.19358 | 38072 ft | 463 kts | 353° |
| 2026-04-16 04:06 | -21.91996 | 147.19106 | 38072 ft | 463 kts | 354° |
| 2026-04-16 04:06 | -21.85565 | 147.18858 | 38070 ft | 463 kts | 354° |
| 2026-04-16 04:07 | -21.79123 | 147.18610 | 38067 ft | 463 kts | 354° |
| 2026-04-16 04:07 | -21.69512 | 147.18238 | 38064 ft | 463 kts | 354° |
| 2026-04-16 04:08 | -21.63095 | 147.17990 | 38060 ft | 460 kts | 354° |
| 2026-04-16 04:08 | -21.56688 | 147.17743 | 38059 ft | 461 kts | 354° |
| 2026-04-16 04:09 | -21.50277 | 147.17497 | 38054 ft | 461 kts | 354° |
| 2026-04-16 04:09 | -21.43868 | 147.17250 | 37998 ft | 461 kts | 354° |
| 2026-04-16 04:10 | -21.40656 | 147.17127 | 37750 ft | 461 kts | 354° |
| 2026-04-16 04:10 | -21.37446 | 147.17003 | 37517 ft | 463 kts | 354° |
| 2026-04-16 04:10 | -21.31008 | 147.16756 | 37917 ft | 459 kts | 354° |
| 2026-04-16 04:11 | -21.27816 | 147.16634 | 38045 ft | 460 kts | 354° |
| 2026-04-16 04:11 | -21.24652 | 147.16512 | 38051 ft | 461 kts | 354° |
| 2026-04-16 04:11 | -21.21450 | 147.16389 | 37943 ft | 458 kts | 354° |
| 2026-04-16 04:11 | -21.18269 | 147.16268 | 37475 ft | 457 kts | 354° |
| 2026-04-16 04:12 | -21.15085 | 147.16146 | 36753 ft | 458 kts | 354° |
| 2026-04-16 04:12 | -21.11886 | 147.16023 | 35930 ft | 461 kts | 354° |
| 2026-04-16 04:12 | -21.08668 | 147.15900 | 35087 ft | 464 kts | 354° |
| 2026-04-16 04:12 | -21.06525 | 147.15817 | 34536 ft | 466 kts | 354° |
| 2026-04-16 04:13 | -21.03269 | 147.15693 | 33652 ft | 469 kts | 354° |
| 2026-04-16 04:13 | -20.99999 | 147.15568 | 32770 ft | 470 kts | 354° |
| 2026-04-16 04:13 | -20.96729 | 147.15443 | 31907 ft | 471 kts | 354° |
| 2026-04-16 04:13 | -20.93446 | 147.15318 | 31034 ft | 473 kts | 354° |
| 2026-04-16 04:14 | -20.90158 | 147.15192 | 30371 ft | 470 kts | 355° |
| 2026-04-16 04:14 | -20.86913 | 147.15070 | 29770 ft | 464 kts | 355° |
| 2026-04-16 04:14 | -20.83704 | 147.14949 | 29068 ft | 459 kts | 355° |
| 2026-04-16 04:14 | -20.80514 | 147.14827 | 28345 ft | 456 kts | 355° |
| 2026-04-16 04:15 | -20.77354 | 147.14707 | 27711 ft | 452 kts | 355° |
| 2026-04-16 04:15 | -20.74227 | 147.14589 | 27094 ft | 447 kts | 355° |
| 2026-04-16 04:15 | -20.71141 | 147.14382 | 26459 ft | 442 kts | 350° |
| 2026-04-16 04:15 | -20.68153 | 147.13845 | 25566 ft | 442 kts | 344° |
| 2026-04-16 04:16 | -20.65144 | 147.13036 | 24418 ft | 451 kts | 343° |
| 2026-04-16 04:16 | -20.62080 | 147.12199 | 22812 ft | 459 kts | 343° |
| 2026-04-16 04:16 | -20.58944 | 147.11349 | 21305 ft | 464 kts | 343° |
| 2026-04-16 04:16 | -20.55822 | 147.10511 | 20389 ft | 461 kts | 343° |
| 2026-04-16 04:17 | -20.52731 | 147.09683 | 19652 ft | 455 kts | 344° |
| 2026-04-16 04:17 | -20.49671 | 147.08865 | 18916 ft | 450 kts | 344° |
| 2026-04-16 04:17 | -20.46652 | 147.08058 | 18150 ft | 445 kts | 344° |
| 2026-04-16 04:17 | -20.43660 | 147.07258 | 17340 ft | 440 kts | 344° |
| 2026-04-16 04:18 | -20.40711 | 147.06470 | 16562 ft | 435 kts | 344° |
| 2026-04-16 04:18 | -20.37822 | 147.05697 | 15835 ft | 430 kts | 344° |
| 2026-04-16 04:18 | -20.34933 | 147.04926 | 15177 ft | 425 kts | 344° |
| 2026-04-16 04:18 | -20.32073 | 147.04162 | 14461 ft | 421 kts | 344° |
| 2026-04-16 04:19 | -20.29251 | 147.03410 | 13689 ft | 417 kts | 345° |
| 2026-04-16 04:19 | -20.26451 | 147.02659 | 12914 ft | 412 kts | 345° |
| 2026-04-16 04:19 | -20.23680 | 147.01916 | 12213 ft | 406 kts | 345° |
| 2026-04-16 04:20 | -20.22387 | 147.01573 | 11985 ft | 402 kts | 345° |
| 2026-04-16 04:20 | -20.19711 | 147.00860 | 11713 ft | 403 kts | 345° |
| 2026-04-16 04:20 | -20.16978 | 147.00131 | 11523 ft | 405 kts | 345° |
| 2026-04-16 04:20 | -20.14254 | 146.99404 | 11320 ft | 404 kts | 345° |
| 2026-04-16 04:21 | -20.11528 | 146.98679 | 11139 ft | 402 kts | 345° |
| 2026-04-16 04:21 | -20.08815 | 146.97957 | 10950 ft | 402 kts | 345° |
| 2026-04-16 04:21 | -20.06106 | 146.97237 | 10774 ft | 400 kts | 345° |
| 2026-04-16 04:21 | -20.03404 | 146.96520 | 10573 ft | 400 kts | 345° |
| 2026-04-16 04:22 | -20.00708 | 146.95804 | 10386 ft | 398 kts | 345° |
| 2026-04-16 04:22 | -19.98017 | 146.95090 | 10206 ft | 398 kts | 346° |
| 2026-04-16 04:22 | -19.95337 | 146.94379 | 10041 ft | 396 kts | 346° |
| 2026-04-16 04:22 | -19.92665 | 146.93669 | 10005 ft | 394 kts | 346° |
| 2026-04-16 04:23 | -19.90041 | 146.92973 | 9998 ft | 394 kts | 346° |
| 2026-04-16 04:23 | -19.87421 | 146.92278 | 9999 ft | 378 kts | 346° |
| 2026-04-16 04:23 | -19.84946 | 146.91621 | 9997 ft | 356 kts | 346° |
| 2026-04-16 04:23 | -19.82608 | 146.90992 | 9992 ft | 336 kts | 344° |
| 2026-04-16 04:24 | -19.80475 | 146.90134 | 9987 ft | 318 kts | 334° |
| 2026-04-16 04:24 | -19.78611 | 146.88993 | 9980 ft | 301 kts | 326° |
| 2026-04-16 04:24 | -19.76934 | 146.87752 | 9892 ft | 289 kts | 326° |
| 2026-04-16 04:24 | -19.75279 | 146.86542 | 9482 ft | 288 kts | 326° |
| 2026-04-16 04:25 | -19.74181 | 146.85745 | 9148 ft | 289 kts | 327° |
| 2026-04-16 04:25 | -19.73009 | 146.84895 | 8854 ft | 289 kts | 327° |
| 2026-04-16 04:25 | -19.71355 | 146.83695 | 8495 ft | 286 kts | 327° |
| 2026-04-16 04:25 | -19.69718 | 146.82507 | 8160 ft | 284 kts | 328° |
| 2026-04-16 04:26 | -19.68109 | 146.81340 | 7758 ft | 284 kts | 328° |
| 2026-04-16 04:26 | -19.66458 | 146.80145 | 7355 ft | 283 kts | 327° |
| 2026-04-16 04:26 | -19.64854 | 146.78978 | 6977 ft | 282 kts | 328° |
| 2026-04-16 04:26 | -19.63233 | 146.77800 | 6591 ft | 282 kts | 328° |
| 2026-04-16 04:27 | -19.61616 | 146.76627 | 6228 ft | 281 kts | 329° |
| 2026-04-16 04:27 | -19.59955 | 146.75556 | 5876 ft | 279 kts | 331° |
| 2026-04-16 04:27 | -19.58275 | 146.74480 | 5462 ft | 279 kts | 332° |
| 2026-04-16 04:27 | -19.56652 | 146.73441 | 5257 ft | 271 kts | 332° |
| 2026-04-16 04:28 | -19.55084 | 146.72434 | 5143 ft | 255 kts | 331° |
| 2026-04-16 04:28 | -19.53604 | 146.71485 | 4868 ft | 244 kts | 332° |
| 2026-04-16 04:28 | -19.52147 | 146.70552 | 4384 ft | 244 kts | 332° |
| 2026-04-16 04:28 | -19.50714 | 146.69636 | 4083 ft | 236 kts | 331° |
| 2026-04-16 04:29 | -19.49277 | 146.68718 | 4011 ft | 245 kts | 332° |
| 2026-04-16 04:29 | -19.47810 | 146.67798 | 4001 ft | 243 kts | 337° |
| 2026-04-16 04:29 | -19.46238 | 146.67394 | 4000 ft | 225 kts | 5° |
| 2026-04-16 04:29 | -19.44766 | 146.67648 | 4000 ft | 205 kts | 20° |
| 2026-04-16 04:30 | -19.43460 | 146.68156 | 3871 ft | 194 kts | 26° |
| 2026-04-16 04:30 | -19.42243 | 146.68738 | 3545 ft | 190 kts | 27° |
| 2026-04-16 04:30 | -19.41051 | 146.69299 | 3270 ft | 185 kts | 27° |
| 2026-04-16 04:30 | -19.39901 | 146.69842 | 3010 ft | 179 kts | 27° |
| 2026-04-16 04:31 | -19.38747 | 146.70389 | 2767 ft | 185 kts | 27° |
| 2026-04-16 04:31 | -19.37574 | 146.70941 | 2543 ft | 184 kts | 26° |
| 2026-04-16 04:31 | -19.36395 | 146.71498 | 2309 ft | 188 kts | 26° |
| 2026-04-16 04:31 | -19.35175 | 146.72074 | 2048 ft | 196 kts | 27° |
| 2026-04-16 04:32 | -19.33928 | 146.72658 | 1746 ft | 192 kts | 27° |
| 2026-04-16 04:32 | -19.32764 | 146.73205 | 1503 ft | 173 kts | 28° |
| 2026-04-16 04:32 | -19.31714 | 146.73700 | 1314 ft | 157 kts | 28° |
| 2026-04-16 04:32 | -19.30764 | 146.74149 | 1107 ft | 142 kts | 28° |
| 2026-04-16 04:33 | -19.29907 | 146.74552 | 941 ft | 128 kts | 30° |
| 2026-04-16 04:33 | -19.29082 | 146.74944 | 786 ft | 135 kts | 27° |
| 2026-04-16 04:33 | -19.28202 | 146.75346 | 569 ft | 137 kts | 28° |
| 2026-04-16 04:33 | -19.27361 | 146.75733 | 363 ft | 128 kts | 31° |
| 2026-04-16 04:34 | -19.26547 | 146.76130 | 197 ft | 134 kts | 31° |
| 2026-04-16 04:34 | -19.25700 | 146.76528 | 35 ft | 132 kts | 29° |
| 2026-04-16 04:34 | -19.24988 | 146.76875 | 19 ft | 75 kts | 23° |
| 2026-04-16 04:34 | -19.24640 | 146.77034 | 25 ft | 45 kts | 24° |
| 2026-04-16 04:35 | -19.24392 | 146.77156 | 26 ft | 30 kts | 41° |
| 2026-04-16 04:35 | -19.24381 | 146.77319 | 19 ft | 23 kts | 125° |
| 2026-04-16 04:35 | -19.24517 | 146.77346 | 21 ft | 21 kts | 204° |
| 2026-04-16 04:35 | -19.24655 | 146.77269 | 21 ft | 24 kts | 207° |
| 2026-04-16 04:36 | -19.24811 | 146.77186 | 21 ft | 26 kts | 205° |
| 2026-04-16 04:36 | -19.24978 | 146.77091 | 20 ft | 29 kts | 207° |
| 2026-04-16 04:36 | -19.25148 | 146.76996 | 20 ft | 26 kts | 207° |
| 2026-04-16 04:36 | -19.25317 | 146.76904 | 19 ft | 29 kts | 207° |
| 2026-04-16 04:37 | -19.25414 | 146.76919 | 20 ft | 7 kts | 117° |
| 2026-04-16 04:37 | -19.25462 | 146.76955 | 20 ft | 11 kts | 172° |
| 2026-04-16 04:37 | -19.25545 | 146.76938 | 22 ft | 7 kts | 179° |
| 2026-04-16 04:37 | -19.25560 | 146.76968 | 22 ft | 5 kts | 108° |
| 2026-04-16 04:38 | -19.25565 | 146.76984 | 23 ft | 0 kts | 107° |